ENVA/TRD METAR and TAF weather

Enter ICAO airport designator
Station Type Date Time Source
ENVA METAR 2019/02/23 01:50 UTC NOAA

ENVA 230150Z 08005KT 9999 FEW041 BKN055 02/02 Q1029 RMK WIND 670FT 09003KT


Station Type Date Time Source
ENVA Decoded METAR 2019/02/23 01:50 UTC NOAA

Trondheim / Vaernes, Norway (ENVA) 63-28N 010-56E 17M
Feb 22, 2019 - 08:50 PM EST / 2019.02.23 0150 UTC
Wind: from the E (080 degrees) at 6 MPH (5 KT):0
Visibility: greater than 7 mile(s):0
Sky conditions: mostly cloudy
Temperature: 35 F (2 C)
Windchill: 30 F (-1 C):1
Dew Point: 35 F (2 C)
Relative Humidity: 100%
Pressure (altimeter): 30.39 in. Hg (1029 hPa)
ob: ENVA 230150Z 08005KT 9999 FEW041 BKN055 02/02 Q1029 RMK WIND 670FT 09003KT
cycle: 2

Station Type Date Time Source
ENVA TAF 2019/02/22 19:57 UTC NOAA

TAF
AMD
AMD ENVA 2219/2318 12008KT 9999 SCT007 BKN025 PROB40 2219/2223 2000 BCFG BKN003
TEMPO 2222/2312 25012KT


Example: see airport list